Time;durP1;ratioP1;P1;durP2;ratioP2;P2;SDS_P1;SDS_P2;PMS_P1;PMS_P2;Temp;Humidity;BMP_temperature;BMP_pressure;BME280_temperature;BME280_humidity;BME280_pressure;Samples;Min_cycle;Max_cycle;Signal;HPM_P1;HPM_P2
2023/02/13 00:04:19;;;;;;;22.30;20.10;;;4.60;99.90;;;;;;10523666;28;20224;-77
2023/02/13 00:09:23;;;;;;;22.40;18.10;;;4.50;99.90;;;;;;10507506;28;20278;-78
2023/02/13 00:14:25;;;;;;;22.93;20.57;;;4.50;99.90;;;;;;10500999;28;20239;-78
2023/02/13 00:19:27;;;;;;;23.10;19.60;;;4.50;99.90;;;;;;10526707;28;20259;-78
2023/02/13 00:24:31;;;;;;;24.00;20.40;;;4.40;99.90;;;;;;10537189;28;20657;-78
2023/02/13 00:29:33;;;;;;;23.43;20.10;;;4.30;99.90;;;;;;10473140;28;20224;-78
2023/02/13 00:34:35;;;;;;;25.23;20.77;;;4.30;99.90;;;;;;10529211;28;20211;-77
2023/02/13 00:39:39;;;;;;;24.87;20.33;;;4.30;99.90;;;;;;10489791;28;20283;-78
2023/02/13 00:44:41;;;;;;;25.50;21.50;;;4.20;99.90;;;;;;10466111;28;20229;-78
2023/02/13 00:49:43;;;;;;;22.40;20.00;;;4.20;99.90;;;;;;10484259;28;20205;-78
2023/02/13 00:54:47;;;;;;;25.33;21.57;;;4.20;99.90;;;;;;10483466;28;20313;-78
2023/02/13 00:59:49;;;;;;;27.20;22.53;;;4.10;99.90;;;;;;10501489;28;20227;-78
2023/02/13 01:04:51;;;;;;;27.17;22.60;;;4.10;99.90;;;;;;10532577;28;20210;-77
2023/02/13 01:09:55;;;;;;;25.73;21.47;;;4.10;99.90;;;;;;10494527;28;20654;-78
2023/02/13 01:14:57;;;;;;;26.80;21.57;;;4.20;99.90;;;;;;10489085;28;20309;-78
2023/02/13 01:19:59;;;;;;;24.00;21.20;;;4.20;99.90;;;;;;10480114;28;20196;-78
2023/02/13 01:25:02;;;;;;;27.23;22.00;;;4.10;99.90;;;;;;10527426;28;20313;-78
2023/02/13 01:30:10;;;;;;;26.90;21.50;;;4.20;99.90;;;;;;10494921;28;20195;-78
2023/02/13 01:35:13;;;;;;;25.87;22.00;;;4.10;99.90;;;;;;10473379;28;20209;-78
2023/02/13 01:40:17;;;;;;;26.80;21.07;;;4.10;99.90;;;;;;10512300;28;20204;-78
2023/02/13 01:45:24;;;;;;;27.93;21.50;;;4.10;99.90;;;;;;10527783;28;20310;-78
2023/02/13 01:50:32;;;;;;;25.80;20.97;;;4.20;99.90;;;;;;10512448;28;20602;-78
2023/02/13 01:55:42;;;;;;;25.90;21.30;;;4.20;99.90;;;;;;10495149;28;20207;-78
2023/02/13 02:00:48;;;;;;;27.23;20.83;;;4.10;99.90;;;;;;10522536;28;20713;-78
2023/02/13 02:05:51;;;;;;;24.57;21.27;;;4.00;99.90;;;;;;10508720;28;20769;-78
2023/02/13 02:10:58;;;;;;;26.90;21.27;;;4.00;99.90;;;;;;10511084;28;20723;-78
2023/02/13 02:16:00;;;;;;;29.03;21.30;;;4.00;99.90;;;;;;10477208;28;20218;-78
2023/02/13 02:21:29;;;;;;;26.43;21.03;;;4.00;99.90;;;;;;10488472;28;20211;-78
2023/02/13 02:27:07;;;;;;;25.77;20.83;;;4.00;99.90;;;;;;10534978;28;20597;-78
2023/02/13 02:32:25;;;;;;;22.67;19.60;;;4.10;99.90;;;;;;10518917;28;20217;-78
2023/02/13 02:37:42;;;;;;;23.97;19.40;;;4.00;99.90;;;;;;10465921;28;20190;-77
2023/02/13 02:42:57;;;;;;;24.70;21.17;;;4.10;99.90;;;;;;10509027;28;20693;-77
2023/02/13 02:53:33;;;;;;;26.60;22.07;;;3.90;99.90;;;;;;10506242;28;20241;-77
2023/02/13 03:14:48;;;;;;;27.77;22.03;;;3.70;99.90;;;;;;10494177;28;20222;-78
2023/02/13 03:25:33;;;;;;;26.70;22.30;;;3.60;99.90;;;;;;10510293;28;20275;-78
2023/02/13 03:30:46;;;;;;;27.70;24.00;;;3.70;99.90;;;;;;10556569;28;20201;-77
2023/02/13 03:41:22;;;;;;;28.80;22.77;;;3.70;99.90;;;;;;10548708;28;20236;-77
2023/02/13 03:46:27;;;;;;;27.30;22.53;;;3.70;99.90;;;;;;10521664;28;20220;-78
2023/02/13 03:51:34;;;;;;;27.33;20.87;;;3.70;99.90;;;;;;10485336;28;20198;-77
2023/02/13 04:02:08;;;;;;;30.00;23.43;;;3.50;99.90;;;;;;10491038;28;20634;-77
2023/02/13 04:07:28;;;;;;;29.13;24.00;;;3.50;99.90;;;;;;10508191;28;20543;-77
2023/02/13 04:12:38;;;;;;;31.50;24.40;;;3.60;99.90;;;;;;10511606;28;20225;-77
2023/02/13 04:17:46;;;;;;;28.37;23.73;;;3.70;99.90;;;;;;10486164;28;20538;-77
2023/02/13 04:22:49;;;;;;;24.90;21.97;;;3.70;99.90;;;;;;10510605;28;20230;-77
2023/02/13 04:27:51;;;;;;;25.60;22.37;;;3.80;99.90;;;;;;10501677;28;20635;-77
2023/02/13 04:32:53;;;;;;;29.63;23.10;;;3.80;99.90;;;;;;10471049;28;20682;-77
2023/02/13 04:37:56;;;;;;;27.57;23.47;;;3.80;99.90;;;;;;10518276;28;20202;-77
2023/02/13 04:42:58;;;;;;;27.30;22.07;;;3.70;99.90;;;;;;10486621;28;20236;-77
2023/02/13 04:48:01;;;;;;;27.50;22.70;;;3.80;99.90;;;;;;10474067;28;20279;-77
2023/02/13 04:53:04;;;;;;;28.07;22.10;;;3.80;99.90;;;;;;10517565;28;20673;-77
2023/02/13 04:58:06;;;;;;;28.07;23.07;;;3.70;99.90;;;;;;10475248;28;20286;-78
2023/02/13 05:03:10;;;;;;;26.80;23.13;;;3.70;99.90;;;;;;10474197;28;20264;-78
2023/02/13 05:08:13;;;;;;;27.37;21.60;;;3.70;99.90;;;;;;10511463;28;20610;-78
2023/02/13 05:13:15;;;;;;;24.33;21.70;;;3.70;99.90;;;;;;10514563;28;20208;-77
2023/02/13 05:18:17;;;;;;;29.00;23.60;;;3.60;99.90;;;;;;10486564;28;20726;-78
2023/02/13 05:23:23;;;;;;;28.10;23.80;;;3.60;99.90;;;;;;10514809;28;20654;-77
2023/02/13 05:33:45;;;;;;;31.47;24.87;;;3.60;99.90;;;;;;10489414;28;20205;-77
2023/02/13 05:38:48;;;;;;;28.40;23.30;;;3.60;99.90;;;;;;10482730;28;20202;-78
2023/02/13 05:43:50;;;;;;;29.30;23.87;;;3.60;99.90;;;;;;10534860;28;20244;-78
2023/02/13 05:48:52;;;;;;;27.03;22.60;;;3.60;99.90;;;;;;10498679;28;20677;-78
2023/02/13 05:53:56;;;;;;;27.30;23.53;;;3.60;99.90;;;;;;10469495;28;20589;-78
2023/02/13 05:58:58;;;;;;;28.43;23.20;;;3.60;99.90;;;;;;10471195;28;20210;-79
2023/02/13 06:04:00;;;;;;;28.53;23.27;;;3.60;99.90;;;;;;10490001;28;20247;-79
2023/02/13 06:09:04;;;;;;;30.33;24.73;;;3.60;99.90;;;;;;10532556;28;20259;-78
2023/02/13 06:14:06;;;;;;;25.77;22.20;;;3.60;99.90;;;;;;10513097;28;20592;-78
2023/02/13 06:19:08;;;;;;;28.17;23.07;;;3.60;99.90;;;;;;10500772;28;20284;-78
2023/02/13 06:24:13;;;;;;;27.90;24.57;;;3.60;99.90;;;;;;10517639;28;20232;-77
2023/02/13 06:29:15;;;;;;;28.80;23.00;;;3.60;99.90;;;;;;10521317;28;20247;-78
2023/02/13 06:34:16;;;;;;;28.80;23.63;;;3.50;99.90;;;;;;10502621;28;20220;-78
2023/02/13 06:39:20;;;;;;;32.37;26.33;;;3.50;99.90;;;;;;10501896;28;20232;-78
2023/02/13 06:44:22;;;;;;;31.23;25.60;;;3.50;99.90;;;;;;10486895;28;20217;-80
2023/02/13 06:49:24;;;;;;;30.70;26.20;;;3.50;99.90;;;;;;10485070;28;20214;-77
2023/02/13 06:54:29;;;;;;;33.10;26.60;;;3.50;99.90;;;;;;10501006;28;20216;-80
2023/02/13 06:59:31;;;;;;;29.93;25.43;;;3.60;99.90;;;;;;10526490;28;20225;-80
2023/02/13 07:04:33;;;;;;;32.77;27.67;;;3.60;99.90;;;;;;10540152;28;20209;-78
2023/02/13 07:09:36;;;;;;;27.17;24.10;;;3.60;99.90;;;;;;10517994;28;20489;-78
2023/02/13 07:14:38;;;;;;;28.70;25.47;;;3.70;99.90;;;;;;10506913;28;20215;-78
2023/02/13 07:19:40;;;;;;;34.10;25.10;;;3.70;99.90;;;;;;10525321;28;20197;-78
2023/02/13 07:24:44;;;;;;;28.50;23.97;;;3.70;99.90;;;;;;10501023;28;20276;-78
2023/02/13 07:29:46;;;;;;;27.57;24.60;;;3.80;99.90;;;;;;10522440;28;20206;-77
2023/02/13 07:34:48;;;;;;;32.47;25.70;;;3.80;99.90;;;;;;10518541;28;20755;-77
2023/02/13 07:39:51;;;;;;;34.27;25.93;;;3.80;99.90;;;;;;10515807;28;20670;-77
2023/02/13 07:44:53;;;;;;;30.63;26.47;;;3.80;99.90;;;;;;10519378;28;20221;-76
2023/02/13 07:49:55;;;;;;;30.50;26.00;;;3.80;99.90;;;;;;10526987;28;20198;-76
2023/02/13 07:54:58;;;;;;;32.53;26.53;;;3.90;99.90;;;;;;10543823;22;20267;-80
2023/02/13 08:00:00;;;;;;;35.40;26.67;;;4.00;99.90;;;;;;10520456;28;20201;-83
2023/02/13 08:05:03;;;;;;;31.30;26.03;;;4.10;99.90;;;;;;10520365;28;20699;-81
2023/02/13 08:15:28;;;;;;;33.43;26.30;;;4.20;99.90;;;;;;10512996;28;20213;-80
2023/02/13 08:20:30;;;;;;;35.57;27.10;;;4.30;99.90;;;;;;10497325;28;20199;-80
2023/02/13 08:25:34;;;;;;;35.33;28.57;;;4.30;99.90;;;;;;10519150;28;20323;-80
2023/02/13 08:30:40;;;;;;;34.70;27.67;;;4.40;99.90;;;;;;10480271;28;20199;-81
2023/02/13 08:35:42;;;;;;;39.47;30.70;;;4.50;99.90;;;;;;10509043;28;20213;-81
2023/02/13 08:40:45;;;;;;;36.53;27.93;;;4.60;99.90;;;;;;10501095;28;20203;-80
2023/02/13 08:45:48;;;;;;;33.67;27.17;;;4.70;99.90;;;;;;10519469;28;20251;-83
2023/02/13 08:50:50;;;;;;;35.03;27.07;;;4.70;99.90;;;;;;10506461;28;20575;-81
2023/02/13 08:55:54;;;;;;;30.00;25.07;;;4.90;99.90;;;;;;10508855;28;20217;-81
2023/02/13 09:00:56;;;;;;;30.70;25.13;;;5.00;99.90;;;;;;10506855;28;20199;-83
2023/02/13 09:05:59;;;;;;;29.37;24.67;;;5.20;99.90;;;;;;10546104;28;20634;-84
2023/02/13 09:11:06;;;;;;;31.53;23.90;;;5.30;99.90;;;;;;10491038;28;20595;-80
2023/02/13 09:16:09;;;;;;;27.27;23.70;;;5.50;99.90;;;;;;10496139;28;20230;-80
2023/02/13 09:21:12;;;;;;;25.50;22.70;;;5.60;99.90;;;;;;10487974;28;20239;-81
2023/02/13 09:26:17;;;;;;;25.23;21.77;;;5.80;99.90;;;;;;10505499;28;20311;-80
2023/02/13 09:31:22;;;;;;;21.30;19.10;;;5.90;99.90;;;;;;10503421;28;20205;-80
2023/02/13 09:36:25;;;;;;;19.40;17.50;;;6.10;99.90;;;;;;10534578;28;20209;-80
2023/02/13 09:41:31;;;;;;;18.10;16.23;;;6.20;99.90;;;;;;10512664;28;20648;-80
2023/02/13 09:46:36;;;;;;;19.87;17.77;;;6.40;99.90;;;;;;10507544;28;20204;-80
2023/02/13 09:51:38;;;;;;;19.50;17.60;;;6.50;99.90;;;;;;10504910;28;20297;-81
2023/02/13 09:56:53;;;;;;;19.93;17.93;;;6.60;99.90;;;;;;10505779;28;20221;-80
2023/02/13 10:01:59;;;;;;;20.13;18.10;;;6.80;99.90;;;;;;10505002;28;20363;-80
2023/02/13 10:07:18;;;;;;;19.10;17.10;;;6.90;99.90;;;;;;10503539;28;20258;-81
2023/02/13 10:12:43;;;;;;;19.83;17.10;;;6.90;99.90;;;;;;10507847;28;20197;-81
2023/02/13 10:17:47;;;;;;;20.30;18.30;;;6.90;99.90;;;;;;10525480;28;20574;-81
2023/02/13 10:22:53;;;;;;;19.77;17.77;;;7.00;99.90;;;;;;10545730;28;20230;-81
2023/02/13 10:28:03;;;;;;;17.27;15.00;;;7.00;99.90;;;;;;10502371;28;20229;-81
2023/02/13 10:33:21;;;;;;;17.33;15.60;;;7.10;99.90;;;;;;10489133;28;20220;-82
2023/02/13 10:38:24;;;;;;;51.30;25.17;;;7.10;99.90;;;;;;10488387;28;20206;-81
2023/02/13 10:43:34;;;;;;;15.30;13.80;;;7.10;99.90;;;;;;10542335;28;20348;-82
2023/02/13 10:48:58;;;;;;;14.80;13.50;;;7.30;99.40;;;;;;10520194;28;20209;-82
2023/02/13 10:54:25;;;;;;;15.20;13.70;;;7.40;99.40;;;;;;10497899;28;20253;-81
2023/02/13 10:59:41;;;;;;;15.30;13.80;;;7.40;99.50;;;;;;10502298;28;20194;-81
2023/02/13 11:04:44;;;;;;;15.17;13.77;;;7.40;99.40;;;;;;10466789;28;20230;-81
2023/02/13 11:09:48;;;;;;;13.33;12.07;;;7.50;99.30;;;;;;10488314;28;20198;-81
2023/02/13 11:14:56;;;;;;;11.63;10.50;;;7.50;99.20;;;;;;10502558;28;20587;-81
2023/02/13 11:20:00;;;;;;;12.10;10.90;;;7.60;98.60;;;;;;10480540;28;20292;-81
2023/02/13 11:25:06;;;;;;;12.60;11.40;;;7.70;97.90;;;;;;10468587;28;20224;-81
2023/02/13 11:30:32;;;;;;;12.47;11.37;;;7.80;97.60;;;;;;10483055;28;20614;-80
2023/02/13 11:35:35;;;;;;;14.23;11.10;;;7.80;97.60;;;;;;10481950;28;20213;-81
2023/02/13 11:40:38;;;;;;;25.80;23.17;;;7.80;98.00;;;;;;10484085;28;20637;-81
2023/02/13 11:45:43;;;;;;;12.63;11.33;;;7.80;98.40;;;;;;10501718;28;20311;-80
2023/02/13 11:50:51;;;;;;;13.40;11.20;;;7.80;98.50;;;;;;10486581;28;20201;-81
2023/02/13 11:56:09;;;;;;;12.30;11.20;;;7.90;98.20;;;;;;10467704;28;20232;-79
2023/02/13 12:01:25;;;;;;;13.53;12.33;;;8.00;97.60;;;;;;10478070;28;20226;-79
2023/02/13 12:06:28;;;;;;;12.50;11.40;;;8.00;98.00;;;;;;10479438;28;20281;-79
2023/02/13 12:11:38;;;;;;;15.63;12.50;;;8.20;97.40;;;;;;10459137;28;20194;-80
2023/02/13 12:16:49;;;;;;;12.63;11.53;;;8.10;98.20;;;;;;10459825;28;20802;-80
2023/02/13 12:22:11;;;;;;;12.97;11.80;;;8.30;97.10;;;;;;10480546;28;20208;-80
2023/02/13 12:27:22;;;;;;;13.47;12.07;;;8.20;97.50;;;;;;10481784;28;20225;-80
2023/02/13 12:32:39;;;;;;;13.90;12.60;;;8.40;97.60;;;;;;10479483;28;20224;-80
2023/02/13 12:38:00;;;;;;;15.90;14.30;;;8.30;98.20;;;;;;10496930;28;20201;-81
2023/02/13 12:43:27;;;;;;;15.63;14.13;;;8.30;98.40;;;;;;10479752;28;20248;-81
2023/02/13 12:48:37;;;;;;;15.80;14.23;;;8.40;98.20;;;;;;10479306;28;20254;-79
2023/02/13 12:54:15;;;;;;;16.63;15.00;;;8.30;99.00;;;;;;10497420;28;20307;-80
2023/02/13 12:59:30;;;;;;;16.00;14.53;;;8.30;99.00;;;;;;10460431;28;20247;-79
2023/02/13 13:04:47;;;;;;;14.73;13.23;;;8.30;99.00;;;;;;10496189;28;20232;-80
2023/02/13 13:10:11;;;;;;;14.73;13.40;;;8.30;98.40;;;;;;10482558;28;20288;-80
2023/02/13 13:15:23;;;;;;;19.00;17.00;;;8.40;97.90;;;;;;10482817;28;20213;-80
2023/02/13 13:20:39;;;;;;;31.70;26.90;;;8.50;98.40;;;;;;10482954;28;20196;-80
2023/02/13 13:25:49;;;;;;;15.43;13.93;;;8.50;98.40;;;;;;10490069;28;20562;-80
2023/02/13 13:30:52;;;;;;;16.00;13.97;;;8.60;98.00;;;;;;10469102;28;20301;-80
2023/02/13 13:36:02;;;;;;;15.77;13.93;;;8.60;98.40;;;;;;10492742;28;20232;-80
2023/02/13 13:41:13;;;;;;;15.47;13.87;;;8.60;98.90;;;;;;10500297;28;20200;-80
2023/02/13 13:46:21;;;;;;;14.90;13.50;;;8.60;99.00;;;;;;10470774;28;20257;-80
2023/02/13 13:51:24;;;;;;;15.30;13.80;;;8.60;98.50;;;;;;10490328;28;20201;-80
2023/02/13 13:56:27;;;;;;;16.00;14.30;;;8.60;98.90;;;;;;10495128;22;20768;-78
2023/02/13 14:01:30;;;;;;;14.57;13.17;;;8.60;99.30;;;;;;10453522;28;20198;-78
2023/02/13 14:07:17;;;;;;;14.67;13.13;;;8.50;99.30;;;;;;10500500;28;20676;-80
2023/02/13 14:12:46;;;;;;;13.50;12.30;;;8.50;99.50;;;;;;10413859;28;20196;-78
2023/02/13 14:17:54;;;;;;;15.67;13.40;;;8.60;98.60;;;;;;10490455;28;20302;-80
2023/02/13 14:22:56;;;;;;;13.80;12.40;;;8.60;98.90;;;;;;10525694;28;20239;-78
2023/02/13 14:28:02;;;;;;;14.07;12.83;;;8.70;98.60;;;;;;10496008;28;20195;-79
2023/02/13 14:33:06;;;;;;;37.27;30.23;;;8.80;98.80;;;;;;10484820;28;20208;-80
2023/02/13 14:38:23;;;;;;;16.77;15.07;;;8.80;99.00;;;;;;10522464;28;20195;-80
2023/02/13 14:43:53;;;;;;;13.90;12.43;;;8.70;99.20;;;;;;10497468;28;20268;-80
2023/02/13 14:49:00;;;;;;;13.67;12.30;;;8.80;98.70;;;;;;10487137;28;20276;-80
2023/02/13 14:54:07;;;;;;;13.57;12.03;;;8.80;97.90;;;;;;10526204;28;20249;-80
2023/02/13 14:59:16;;;;;;;15.50;13.37;;;9.00;97.50;;;;;;10484951;28;20668;-80
2023/02/13 15:04:23;;;;;;;12.73;11.63;;;9.10;97.10;;;;;;10498924;28;20242;-81
2023/02/13 15:09:34;;;;;;;12.60;11.40;;;9.20;97.10;;;;;;10534666;28;20226;-82
2023/02/13 15:14:38;;;;;;;14.17;12.50;;;9.20;96.90;;;;;;10468740;28;20273;-81
2023/02/13 15:19:45;;;;;;;13.37;12.00;;;9.30;97.50;;;;;;10498538;28;20311;-81
2023/02/13 15:24:49;;;;;;;12.70;11.50;;;9.20;97.80;;;;;;10500069;28;20259;-81
2023/02/13 15:29:58;;;;;;;13.50;12.20;;;9.20;97.50;;;;;;10493510;28;20283;-80
2023/02/13 15:35:00;;;;;;;16.93;10.93;;;9.20;97.50;;;;;;10514188;28;20291;-80
2023/02/13 15:40:17;;;;;;;12.17;11.00;;;9.20;97.40;;;;;;10531483;28;20226;-79
2023/02/13 15:45:23;;;;;;;12.00;10.90;;;9.10;97.20;;;;;;10504539;28;20253;-81
2023/02/13 15:50:30;;;;;;;12.07;11.07;;;9.20;96.90;;;;;;10485559;28;20203;-78
2023/02/13 15:55:35;;;;;;;12.80;11.53;;;9.10;97.00;;;;;;10469058;28;20288;-80
2023/02/13 16:00:42;;;;;;;13.40;12.17;;;9.00;96.90;;;;;;10499649;28;20578;-79
2023/02/13 16:05:46;;;;;;;12.23;11.03;;;9.00;97.00;;;;;;10502097;28;20217;-81
2023/02/13 16:10:48;;;;;;;12.33;11.13;;;8.90;97.40;;;;;;10503512;28;20226;-79
2023/02/13 16:15:52;;;;;;;13.33;12.10;;;8.90;97.40;;;;;;10491875;28;20206;-79
2023/02/13 16:20:55;;;;;;;13.13;11.80;;;8.80;97.40;;;;;;10492380;28;20195;-78
2023/02/13 16:26:03;;;;;;;12.87;11.20;;;8.70;97.60;;;;;;10512227;28;20700;-78
2023/02/13 16:31:07;;;;;;;13.67;12.40;;;8.60;98.20;;;;;;10491382;28;20195;-79
2023/02/13 16:36:25;;;;;;;13.33;11.93;;;8.60;97.80;;;;;;10528927;28;20220;-80
2023/02/13 16:41:33;;;;;;;10.73;9.67;;;8.50;98.10;;;;;;10508771;28;20197;-80
2023/02/13 16:46:38;;;;;;;14.80;13.13;;;8.40;98.40;;;;;;10545733;28;20207;-77
2023/02/13 16:51:42;;;;;;;14.20;12.70;;;8.30;98.70;;;;;;10507502;28;20201;-77
2023/02/13 16:56:47;;;;;;;12.30;11.13;;;8.20;98.00;;;;;;10472168;28;20243;-79
2023/02/13 17:02:17;;;;;;;14.23;12.87;;;8.00;98.20;;;;;;10488184;28;20580;-81
2023/02/13 17:07:25;;;;;;;13.10;11.80;;;7.90;98.20;;;;;;10488898;28;20231;-80
2023/02/13 17:12:29;;;;;;;14.37;12.70;;;7.70;98.30;;;;;;10503605;28;20236;-81
2023/02/13 17:17:32;;;;;;;14.10;12.70;;;7.60;98.50;;;;;;10553052;28;20250;-81
2023/02/13 17:22:39;;;;;;;16.30;14.70;;;7.60;98.50;;;;;;10532054;28;20268;-81
2023/02/13 17:27:41;;;;;;;17.47;14.27;;;7.40;98.40;;;;;;10506123;28;20221;-80
2023/02/13 17:32:46;;;;;;;15.40;13.90;;;7.30;99.10;;;;;;10503765;28;20196;-80
2023/02/13 17:37:48;;;;;;;15.97;14.47;;;7.20;99.90;;;;;;10551862;28;20209;-77
2023/02/13 17:42:52;;;;;;;17.10;15.30;;;7.10;99.50;;;;;;10548938;28;20219;-78
2023/02/13 17:47:56;;;;;;;16.20;14.60;;;7.10;99.40;;;;;;10530269;28;20209;-79
2023/02/13 17:53:02;;;;;;;18.00;16.20;;;7.00;99.10;;;;;;10513251;28;20202;-79
2023/02/13 17:58:04;;;;;;;18.40;16.37;;;7.00;99.50;;;;;;10505727;28;20262;-78
2023/02/13 18:03:08;;;;;;;18.47;16.67;;;7.00;99.40;;;;;;10549753;28;20244;-78
2023/02/13 18:08:10;;;;;;;19.03;16.70;;;7.00;99.40;;;;;;10499477;28;20681;-77
2023/02/13 18:13:12;;;;;;;19.80;17.43;;;6.90;98.60;;;;;;10495061;28;20650;-77
2023/02/13 18:18:16;;;;;;;21.00;18.70;;;6.80;98.70;;;;;;10518708;28;20223;-80
2023/02/13 18:23:18;;;;;;;17.80;15.93;;;6.70;98.70;;;;;;10495879;28;20248;-80
2023/02/13 18:28:20;;;;;;;19.37;17.37;;;6.70;99.10;;;;;;10502250;28;20279;-78
2023/02/13 18:33:23;;;;;;;19.47;16.67;;;6.70;99.30;;;;;;10506813;28;20267;-78
2023/02/13 18:38:26;;;;;;;19.87;17.63;;;6.60;99.80;;;;;;10498984;28;20657;-79
2023/02/13 18:43:28;;;;;;;22.67;18.10;;;6.60;99.10;;;;;;10522031;28;20223;-79
2023/02/13 18:48:31;;;;;;;20.23;18.13;;;6.50;98.90;;;;;;10508289;28;20570;-78
2023/02/13 18:53:33;;;;;;;22.20;19.23;;;6.50;99.30;;;;;;10545505;28;20229;-80
2023/02/13 18:58:35;;;;;;;20.67;18.33;;;6.40;98.80;;;;;;10506918;28;20228;-79
2023/02/13 19:03:39;;;;;;;20.67;18.43;;;6.30;99.20;;;;;;10525832;28;20283;-77
2023/02/13 19:08:41;;;;;;;26.60;23.80;;;6.30;99.30;;;;;;10514977;28;20210;-78
2023/02/13 19:13:44;;;;;;;21.33;19.03;;;6.20;99.60;;;;;;10491301;28;20247;-78
2023/02/13 19:18:50;;;;;;;19.23;17.23;;;6.20;99.70;;;;;;10526819;28;20201;-78
2023/02/13 19:23:53;;;;;;;20.60;18.40;;;6.20;99.90;;;;;;10540642;28;20214;-79
2023/02/13 19:28:56;;;;;;;19.93;17.80;;;6.10;99.60;;;;;;10500174;28;20189;-79
2023/02/13 19:34:00;;;;;;;23.63;21.13;;;6.10;99.90;;;;;;10463722;28;20214;-79
2023/02/13 19:39:05;;;;;;;22.27;19.97;;;6.10;99.90;;;;;;10521003;28;20194;-79
2023/02/13 19:44:08;;;;;;;21.33;19.17;;;6.10;99.20;;;;;;10522773;28;20237;-79
2023/02/13 19:49:11;;;;;;;21.63;18.40;;;6.00;99.50;;;;;;10485446;28;20700;-78
2023/02/13 19:54:13;;;;;;;21.37;19.20;;;5.90;98.90;;;;;;10484717;28;20223;-77
2023/02/13 19:59:15;;;;;;;21.63;19.33;;;5.80;98.70;;;;;;10477823;28;20203;-78
2023/02/13 20:04:19;;;;;;;20.37;18.27;;;5.70;99.20;;;;;;10467614;28;20794;-78
2023/02/13 20:09:21;;;;;;;21.30;19.13;;;5.60;99.30;;;;;;10481697;28;20578;-79
2023/02/13 20:14:23;;;;;;;23.63;21.00;;;5.60;99.30;;;;;;10423769;28;20221;-79
2023/02/13 20:19:27;;;;;;;28.43;23.27;;;5.60;98.90;;;;;;10456216;28;20579;-79
2023/02/13 20:24:31;;;;;;;26.20;22.37;;;5.50;98.80;;;;;;10480410;28;20224;-79
2023/02/13 20:29:35;;;;;;;20.80;18.60;;;5.40;99.10;;;;;;10481570;28;20201;-79
2023/02/13 20:34:38;;;;;;;22.97;20.57;;;5.30;99.10;;;;;;10459590;28;20796;-78
2023/02/13 20:39:40;;;;;;;21.57;19.20;;;5.20;98.90;;;;;;10454960;28;20205;-78
2023/02/13 20:44:43;;;;;;;20.63;18.53;;;5.10;98.90;;;;;;10509597;28;20255;-79
2023/02/13 20:49:47;;;;;;;20.30;18.13;;;5.00;98.80;;;;;;10479265;28;20193;-78
2023/02/13 20:54:49;;;;;;;19.47;17.40;;;4.90;98.70;;;;;;10481248;28;20573;-80
2023/02/13 20:59:51;;;;;;;20.03;17.53;;;4.90;98.70;;;;;;10514448;28;20208;-79
2023/02/13 21:04:55;;;;;;;20.33;18.13;;;4.70;98.80;;;;;;10513852;28;20247;-79
2023/02/13 21:09:57;;;;;;;20.70;18.57;;;4.60;98.60;;;;;;10482755;28;20211;-79
2023/02/13 21:14:59;;;;;;;21.00;18.80;;;4.50;98.60;;;;;;10544868;28;20754;-78
2023/02/13 21:20:04;;;;;;;23.73;20.80;;;4.30;98.60;;;;;;10522184;28;20525;-79
2023/02/13 21:25:06;;;;;;;20.97;18.70;;;4.10;99.40;;;;;;10522980;28;20250;-79
2023/02/13 21:30:09;;;;;;;20.20;18.10;;;4.10;99.20;;;;;;10533179;28;20591;-79
2023/02/13 21:35:13;;;;;;;21.23;19.03;;;4.00;99.10;;;;;;10493648;28;20631;-79
2023/02/13 21:40:15;;;;;;;21.50;19.20;;;4.00;99.10;;;;;;10493654;28;20222;-79
2023/02/13 21:45:17;;;;;;;22.27;19.83;;;3.90;99.40;;;;;;10537178;28;20224;-80
2023/02/13 21:50:22;;;;;;;22.70;19.70;;;3.90;99.30;;;;;;10519858;28;20199;-80
2023/02/13 21:55:24;;;;;;;22.97;20.07;;;3.80;99.90;;;;;;10511138;28;20228;-78
2023/02/13 22:00:26;;;;;;;21.23;19.13;;;3.90;99.20;;;;;;10523301;28;20190;-79
2023/02/13 22:05:29;;;;;;;21.80;19.50;;;3.90;99.50;;;;;;10554100;28;20280;-80
2023/02/13 22:10:31;;;;;;;22.67;20.23;;;3.80;99.30;;;;;;10547361;28;20193;-79
2023/02/13 22:15:33;;;;;;;22.93;20.50;;;3.80;99.80;;;;;;10474636;28;20222;-78
2023/02/13 22:20:36;;;;;;;22.30;19.90;;;3.80;99.50;;;;;;10486207;28;20588;-80
2023/02/13 22:25:38;;;;;;;24.63;20.97;;;3.80;99.30;;;;;;10514144;28;20211;-79
2023/02/13 22:30:41;;;;;;;24.77;21.07;;;3.70;99.10;;;;;;10558836;28;20553;-79
2023/02/13 22:35:45;;;;;;;23.83;21.27;;;3.60;99.20;;;;;;10513135;28;20682;-79
2023/02/13 22:40:47;;;;;;;25.20;21.80;;;3.50;99.50;;;;;;10515221;28;20281;-79
2023/02/13 22:45:49;;;;;;;24.37;21.73;;;3.50;99.60;;;;;;10472653;28;20223;-80
2023/02/13 22:50:52;;;;;;;26.20;23.40;;;3.50;99.60;;;;;;10508539;28;20220;-80
2023/02/13 22:55:54;;;;;;;23.17;20.80;;;3.40;99.80;;;;;;10538082;28;20224;-80
2023/02/13 23:00:56;;;;;;;23.17;20.20;;;3.50;99.50;;;;;;10513855;28;20228;-80
2023/02/13 23:06:02;;;;;;;24.97;22.43;;;3.50;99.50;;;;;;10515494;28;20288;-80
2023/02/13 23:16:25;;;;;;;25.43;22.73;;;3.30;99.80;;;;;;10494810;28;20205;-80
2023/02/13 23:21:28;;;;;;;24.23;21.67;;;3.30;99.60;;;;;;10492363;28;20207;-79
2023/02/13 23:26:30;;;;;;;21.77;19.57;;;3.20;99.80;;;;;;10537544;28;20228;-79
2023/02/13 23:31:32;;;;;;;24.03;21.10;;;3.20;99.50;;;;;;10521760;28;20287;-79
2023/02/13 23:36:36;;;;;;;24.13;21.40;;;3.20;99.90;;;;;;10489122;28;20219;-81
2023/02/13 23:41:38;;;;;;;24.90;22.20;;;3.20;99.70;;;;;;10473270;28;20199;-80
2023/02/13 23:46:40;;;;;;;23.50;20.57;;;3.20;99.60;;;;;;10492172;28;20269;-79
2023/02/13 23:51:43;;;;;;;26.63;21.77;;;3.10;99.70;;;;;;10535161;28;20190;-80
2023/02/13 23:56:46;;;;;;;26.20;23.07;;;3.00;99.80;;;;;;10496197;28;20247;-80
